sensor_id;sensor_type;location;lat;lon;timestamp;P1;durP1;ratioP1;P2;durP2;ratioP2
52894;SDS011;38759;53.396;6.722;2023-08-06T00:00:27;9.80;;;5.68;;
52894;SDS011;38759;53.396;6.722;2023-08-06T00:02:53;9.68;;;4.93;;
52894;SDS011;38759;53.396;6.722;2023-08-06T00:05:18;7.00;;;5.18;;
52894;SDS011;38759;53.396;6.722;2023-08-06T00:07:49;9.10;;;5.30;;
52894;SDS011;38759;53.396;6.722;2023-08-06T00:10:15;9.90;;;5.22;;
52894;SDS011;38759;53.396;6.722;2023-08-06T00:12:42;7.85;;;5.57;;
52894;SDS011;38759;53.396;6.722;2023-08-06T00:15:09;8.60;;;4.63;;
52894;SDS011;38759;53.396;6.722;2023-08-06T00:17:35;8.38;;;5.10;;
52894;SDS011;38759;53.396;6.722;2023-08-06T00:20:01;8.80;;;5.40;;
52894;SDS011;38759;53.396;6.722;2023-08-06T00:22:33;8.65;;;5.50;;
52894;SDS011;38759;53.396;6.722;2023-08-06T00:25:00;13.15;;;5.30;;
52894;SDS011;38759;53.396;6.722;2023-08-06T00:27:29;8.43;;;5.32;;
52894;SDS011;38759;53.396;6.722;2023-08-06T00:29:55;17.55;;;5.47;;
52894;SDS011;38759;53.396;6.722;2023-08-06T00:32:21;7.97;;;4.88;;
52894;SDS011;38759;53.396;6.722;2023-08-06T00:34:46;10.00;;;4.55;;
52894;SDS011;38759;53.396;6.722;2023-08-06T00:37:14;8.18;;;4.85;;
52894;SDS011;38759;53.396;6.722;2023-08-06T00:39:41;8.73;;;4.63;;
52894;SDS011;38759;53.396;6.722;2023-08-06T00:42:07;9.25;;;4.32;;
52894;SDS011;38759;53.396;6.722;2023-08-06T00:44:33;7.68;;;4.65;;
52894;SDS011;38759;53.396;6.722;2023-08-06T00:46:59;8.88;;;4.38;;
52894;SDS011;38759;53.396;6.722;2023-08-06T00:49:24;12.88;;;4.60;;
52894;SDS011;38759;53.396;6.722;2023-08-06T00:51:50;9.27;;;5.05;;
52894;SDS011;38759;53.396;6.722;2023-08-06T00:54:16;10.82;;;4.70;;
52894;SDS011;38759;53.396;6.722;2023-08-06T00:56:42;9.35;;;5.63;;
52894;SDS011;38759;53.396;6.722;2023-08-06T00:59:08;6.03;;;4.90;;
52894;SDS011;38759;53.396;6.722;2023-08-06T01:01:35;8.02;;;4.70;;
52894;SDS011;38759;53.396;6.722;2023-08-06T01:04:01;13.27;;;5.07;;
52894;SDS011;38759;53.396;6.722;2023-08-06T01:12:04;5.90;;;4.40;;
52894;SDS011;38759;53.396;6.722;2023-08-06T01:15:00;6.05;;;4.43;;
52894;SDS011;38759;53.396;6.722;2023-08-06T01:17:33;9.05;;;4.65;;
52894;SDS011;38759;53.396;6.722;2023-08-06T01:20:00;7.55;;;4.60;;
52894;SDS011;38759;53.396;6.722;2023-08-06T01:22:26;7.65;;;4.72;;
52894;SDS011;38759;53.396;6.722;2023-08-06T01:24:51;12.25;;;5.20;;
52894;SDS011;38759;53.396;6.722;2023-08-06T01:30:25;7.55;;;4.43;;
52894;SDS011;38759;53.396;6.722;2023-08-06T01:32:58;10.43;;;4.47;;
52894;SDS011;38759;53.396;6.722;2023-08-06T01:35:27;9.90;;;4.47;;
52894;SDS011;38759;53.396;6.722;2023-08-06T01:37:54;8.18;;;4.30;;
52894;SDS011;38759;53.396;6.722;2023-08-06T01:40:21;8.95;;;4.70;;
52894;SDS011;38759;53.396;6.722;2023-08-06T01:42:47;5.82;;;4.03;;
52894;SDS011;38759;53.396;6.722;2023-08-06T01:45:13;8.93;;;4.63;;
52894;SDS011;38759;53.396;6.722;2023-08-06T01:47:39;8.90;;;4.47;;
52894;SDS011;38759;53.396;6.722;2023-08-06T01:50:04;7.78;;;4.97;;
52894;SDS011;38759;53.396;6.722;2023-08-06T01:52:30;7.63;;;4.95;;
52894;SDS011;38759;53.396;6.722;2023-08-06T01:54:56;12.10;;;5.10;;
52894;SDS011;38759;53.396;6.722;2023-08-06T01:57:22;9.43;;;5.05;;
52894;SDS011;38759;53.396;6.722;2023-08-06T01:59:47;7.60;;;5.13;;
52894;SDS011;38759;53.396;6.722;2023-08-06T02:02:13;7.95;;;5.00;;
52894;SDS011;38759;53.396;6.722;2023-08-06T02:04:39;12.05;;;5.35;;
52894;SDS011;38759;53.396;6.722;2023-08-06T02:07:04;8.65;;;5.55;;
52894;SDS011;38759;53.396;6.722;2023-08-06T02:09:30;9.90;;;5.68;;
52894;SDS011;38759;53.396;6.722;2023-08-06T02:11:56;10.40;;;5.43;;
52894;SDS011;38759;53.396;6.722;2023-08-06T02:14:21;11.10;;;6.57;;
52894;SDS011;38759;53.396;6.722;2023-08-06T02:16:47;8.88;;;5.63;;
52894;SDS011;38759;53.396;6.722;2023-08-06T02:19:13;11.38;;;5.28;;
52894;SDS011;38759;53.396;6.722;2023-08-06T02:21:39;7.60;;;5.45;;
52894;SDS011;38759;53.396;6.722;2023-08-06T02:24:05;11.68;;;5.80;;
52894;SDS011;38759;53.396;6.722;2023-08-06T02:26:30;8.35;;;5.43;;
52894;SDS011;38759;53.396;6.722;2023-08-06T02:28:56;7.85;;;5.18;;
52894;SDS011;38759;53.396;6.722;2023-08-06T02:31:21;12.55;;;5.30;;
52894;SDS011;38759;53.396;6.722;2023-08-06T02:33:47;6.93;;;5.10;;
52894;SDS011;38759;53.396;6.722;2023-08-06T02:36:13;9.52;;;4.90;;
52894;SDS011;38759;53.396;6.722;2023-08-06T02:38:38;13.48;;;5.65;;
52894;SDS011;38759;53.396;6.722;2023-08-06T02:41:04;11.45;;;5.53;;
52894;SDS011;38759;53.396;6.722;2023-08-06T02:43:30;6.93;;;5.28;;
52894;SDS011;38759;53.396;6.722;2023-08-06T02:45:57;18.92;;;5.15;;
52894;SDS011;38759;53.396;6.722;2023-08-06T02:48:23;12.57;;;5.43;;
52894;SDS011;38759;53.396;6.722;2023-08-06T02:50:49;8.10;;;5.15;;
52894;SDS011;38759;53.396;6.722;2023-08-06T02:53:14;7.93;;;5.32;;
52894;SDS011;38759;53.396;6.722;2023-08-06T02:55:44;9.20;;;5.28;;
52894;SDS011;38759;53.396;6.722;2023-08-06T02:58:12;9.05;;;5.15;;
52894;SDS011;38759;53.396;6.722;2023-08-06T03:00:37;18.13;;;5.72;;
52894;SDS011;38759;53.396;6.722;2023-08-06T03:03:03;7.60;;;5.13;;
52894;SDS011;38759;53.396;6.722;2023-08-06T03:05:28;13.05;;;5.70;;
52894;SDS011;38759;53.396;6.722;2023-08-06T03:07:54;10.05;;;5.32;;
52894;SDS011;38759;53.396;6.722;2023-08-06T03:10:20;15.07;;;5.25;;
52894;SDS011;38759;53.396;6.722;2023-08-06T03:12:45;8.25;;;5.07;;
52894;SDS011;38759;53.396;6.722;2023-08-06T03:15:11;11.82;;;5.22;;
52894;SDS011;38759;53.396;6.722;2023-08-06T03:17:37;6.40;;;5.00;;
52894;SDS011;38759;53.396;6.722;2023-08-06T03:20:02;12.20;;;5.25;;
52894;SDS011;38759;53.396;6.722;2023-08-06T03:22:28;8.45;;;5.63;;
52894;SDS011;38759;53.396;6.722;2023-08-06T03:24:54;8.90;;;6.28;;
52894;SDS011;38759;53.396;6.722;2023-08-06T03:27:20;9.88;;;5.85;;
52894;SDS011;38759;53.396;6.722;2023-08-06T03:29:48;16.27;;;6.13;;
52894;SDS011;38759;53.396;6.722;2023-08-06T03:32:15;10.30;;;5.90;;
52894;SDS011;38759;53.396;6.722;2023-08-06T03:34:40;7.40;;;5.50;;
52894;SDS011;38759;53.396;6.722;2023-08-06T03:37:06;11.65;;;5.90;;
52894;SDS011;38759;53.396;6.722;2023-08-06T03:39:32;12.30;;;5.68;;
52894;SDS011;38759;53.396;6.722;2023-08-06T03:41:57;7.85;;;5.50;;
52894;SDS011;38759;53.396;6.722;2023-08-06T03:44:23;10.48;;;5.82;;
52894;SDS011;38759;53.396;6.722;2023-08-06T03:46:49;8.27;;;5.93;;
52894;SDS011;38759;53.396;6.722;2023-08-06T03:49:14;12.68;;;5.93;;
52894;SDS011;38759;53.396;6.722;2023-08-06T03:51:40;15.32;;;5.70;;
52894;SDS011;38759;53.396;6.722;2023-08-06T03:54:06;8.38;;;5.32;;
52894;SDS011;38759;53.396;6.722;2023-08-06T03:56:31;10.73;;;6.10;;
52894;SDS011;38759;53.396;6.722;2023-08-06T03:58:57;10.95;;;6.40;;
52894;SDS011;38759;53.396;6.722;2023-08-06T04:01:23;9.15;;;6.00;;
52894;SDS011;38759;53.396;6.722;2023-08-06T04:03:48;16.10;;;6.57;;
52894;SDS011;38759;53.396;6.722;2023-08-06T04:06:14;16.13;;;5.43;;
52894;SDS011;38759;53.396;6.722;2023-08-06T04:08:39;10.27;;;5.55;;
52894;SDS011;38759;53.396;6.722;2023-08-06T04:11:05;11.13;;;5.90;;
52894;SDS011;38759;53.396;6.722;2023-08-06T04:13:31;13.40;;;5.90;;
52894;SDS011;38759;53.396;6.722;2023-08-06T04:16:00;12.45;;;5.95;;
52894;SDS011;38759;53.396;6.722;2023-08-06T04:18:27;14.13;;;6.15;;
52894;SDS011;38759;53.396;6.722;2023-08-06T04:20:52;13.00;;;5.50;;
52894;SDS011;38759;53.396;6.722;2023-08-06T04:23:20;9.35;;;6.38;;
52894;SDS011;38759;53.396;6.722;2023-08-06T04:25:46;12.75;;;5.55;;
52894;SDS011;38759;53.396;6.722;2023-08-06T04:28:11;9.27;;;5.95;;
52894;SDS011;38759;53.396;6.722;2023-08-06T04:30:37;13.88;;;5.90;;
52894;SDS011;38759;53.396;6.722;2023-08-06T04:33:03;8.55;;;6.18;;
52894;SDS011;38759;53.396;6.722;2023-08-06T04:35:29;19.85;;;5.95;;
52894;SDS011;38759;53.396;6.722;2023-08-06T04:37:55;10.10;;;5.75;;
52894;SDS011;38759;53.396;6.722;2023-08-06T04:40:20;12.38;;;6.25;;
52894;SDS011;38759;53.396;6.722;2023-08-06T04:42:46;12.68;;;6.15;;
52894;SDS011;38759;53.396;6.722;2023-08-06T04:45:12;10.52;;;5.93;;
52894;SDS011;38759;53.396;6.722;2023-08-06T04:47:37;9.00;;;5.50;;
52894;SDS011;38759;53.396;6.722;2023-08-06T04:50:03;12.60;;;5.22;;
52894;SDS011;38759;53.396;6.722;2023-08-06T04:52:29;7.20;;;5.38;;
52894;SDS011;38759;53.396;6.722;2023-08-06T04:54:57;10.48;;;5.57;;
52894;SDS011;38759;53.396;6.722;2023-08-06T04:57:23;9.98;;;5.55;;
52894;SDS011;38759;53.396;6.722;2023-08-06T04:59:48;8.02;;;5.10;;
52894;SDS011;38759;53.396;6.722;2023-08-06T05:02:14;10.25;;;5.03;;
52894;SDS011;38759;53.396;6.722;2023-08-06T05:04:40;8.82;;;5.60;;
52894;SDS011;38759;53.396;6.722;2023-08-06T05:07:05;8.45;;;5.55;;
52894;SDS011;38759;53.396;6.722;2023-08-06T05:09:31;11.60;;;4.80;;
52894;SDS011;38759;53.396;6.722;2023-08-06T05:11:57;8.48;;;5.40;;
52894;SDS011;38759;53.396;6.722;2023-08-06T05:14:25;12.43;;;7.10;;
52894;SDS011;38759;53.396;6.722;2023-08-06T05:16:51;7.85;;;6.00;;
52894;SDS011;38759;53.396;6.722;2023-08-06T05:19:16;10.52;;;6.03;;
52894;SDS011;38759;53.396;6.722;2023-08-06T05:21:42;11.35;;;6.60;;
52894;SDS011;38759;53.396;6.722;2023-08-06T05:24:08;12.60;;;6.22;;
52894;SDS011;38759;53.396;6.722;2023-08-06T05:26:34;16.58;;;6.57;;
52894;SDS011;38759;53.396;6.722;2023-08-06T05:29:02;14.25;;;6.70;;
52894;SDS011;38759;53.396;6.722;2023-08-06T05:31:28;12.88;;;6.60;;
52894;SDS011;38759;53.396;6.722;2023-08-06T05:33:54;11.77;;;5.88;;
52894;SDS011;38759;53.396;6.722;2023-08-06T05:36:20;9.75;;;6.60;;
52894;SDS011;38759;53.396;6.722;2023-08-06T05:38:46;12.85;;;6.45;;
52894;SDS011;38759;53.396;6.722;2023-08-06T05:41:12;10.50;;;6.50;;
52894;SDS011;38759;53.396;6.722;2023-08-06T05:43:38;9.57;;;6.55;;
52894;SDS011;38759;53.396;6.722;2023-08-06T05:46:03;10.38;;;6.22;;
52894;SDS011;38759;53.396;6.722;2023-08-06T05:48:29;13.98;;;6.63;;
52894;SDS011;38759;53.396;6.722;2023-08-06T05:50:55;13.80;;;7.40;;
52894;SDS011;38759;53.396;6.722;2023-08-06T05:53:20;9.50;;;6.03;;
52894;SDS011;38759;53.396;6.722;2023-08-06T05:55:47;12.05;;;6.78;;
52894;SDS011;38759;53.396;6.722;2023-08-06T05:58:12;9.73;;;6.30;;
52894;SDS011;38759;53.396;6.722;2023-08-06T06:00:38;12.82;;;7.10;;
52894;SDS011;38759;53.396;6.722;2023-08-06T06:03:04;12.55;;;7.45;;
52894;SDS011;38759;53.396;6.722;2023-08-06T06:05:29;13.15;;;7.57;;
52894;SDS011;38759;53.396;6.722;2023-08-06T06:07:55;10.88;;;7.40;;
52894;SDS011;38759;53.396;6.722;2023-08-06T06:10:21;13.70;;;7.60;;
52894;SDS011;38759;53.396;6.722;2023-08-06T06:12:46;14.75;;;7.88;;
52894;SDS011;38759;53.396;6.722;2023-08-06T06:15:12;12.13;;;6.35;;
52894;SDS011;38759;53.396;6.722;2023-08-06T06:17:37;9.35;;;7.20;;
52894;SDS011;38759;53.396;6.722;2023-08-06T06:20:03;11.23;;;6.28;;
52894;SDS011;38759;53.396;6.722;2023-08-06T06:22:30;9.55;;;6.95;;
52894;SDS011;38759;53.396;6.722;2023-08-06T06:24:55;10.85;;;6.90;;
52894;SDS011;38759;53.396;6.722;2023-08-06T06:27:21;14.73;;;6.68;;
52894;SDS011;38759;53.396;6.722;2023-08-06T06:29:47;12.52;;;6.47;;
52894;SDS011;38759;53.396;6.722;2023-08-06T06:32:13;10.82;;;6.90;;
52894;SDS011;38759;53.396;6.722;2023-08-06T06:34:38;11.13;;;5.80;;
52894;SDS011;38759;53.396;6.722;2023-08-06T06:37:04;13.05;;;6.22;;
52894;SDS011;38759;53.396;6.722;2023-08-06T06:39:30;11.18;;;6.68;;
52894;SDS011;38759;53.396;6.722;2023-08-06T06:41:56;13.95;;;6.70;;
52894;SDS011;38759;53.396;6.722;2023-08-06T06:44:21;14.85;;;6.53;;
52894;SDS011;38759;53.396;6.722;2023-08-06T06:46:47;10.73;;;7.85;;
52894;SDS011;38759;53.396;6.722;2023-08-06T06:49:13;8.85;;;6.28;;
52894;SDS011;38759;53.396;6.722;2023-08-06T06:51:38;12.05;;;6.32;;
52894;SDS011;38759;53.396;6.722;2023-08-06T06:54:04;18.42;;;6.88;;
52894;SDS011;38759;53.396;6.722;2023-08-06T06:56:30;14.32;;;6.53;;
52894;SDS011;38759;53.396;6.722;2023-08-06T06:58:55;10.82;;;5.82;;
52894;SDS011;38759;53.396;6.722;2023-08-06T07:01:21;8.27;;;5.80;;
52894;SDS011;38759;53.396;6.722;2023-08-06T07:03:47;8.80;;;5.45;;
52894;SDS011;38759;53.396;6.722;2023-08-06T07:06:13;11.55;;;6.43;;
52894;SDS011;38759;53.396;6.722;2023-08-06T07:08:40;8.70;;;6.38;;
52894;SDS011;38759;53.396;6.722;2023-08-06T07:11:06;12.25;;;6.20;;
52894;SDS011;38759;53.396;6.722;2023-08-06T07:13:32;11.00;;;6.32;;
52894;SDS011;38759;53.396;6.722;2023-08-06T07:15:59;7.68;;;6.22;;
52894;SDS011;38759;53.396;6.722;2023-08-06T07:18:24;10.38;;;5.68;;
52894;SDS011;38759;53.396;6.722;2023-08-06T07:20:52;9.40;;;6.18;;
52894;SDS011;38759;53.396;6.722;2023-08-06T07:23:20;14.75;;;6.30;;
52894;SDS011;38759;53.396;6.722;2023-08-06T07:25:46;7.72;;;5.50;;
52894;SDS011;38759;53.396;6.722;2023-08-06T07:28:13;8.35;;;4.80;;
52894;SDS011;38759;53.396;6.722;2023-08-06T07:30:39;9.95;;;4.50;;
52894;SDS011;38759;53.396;6.722;2023-08-06T07:33:06;7.38;;;5.00;;
52894;SDS011;38759;53.396;6.722;2023-08-06T07:35:32;6.45;;;5.32;;
52894;SDS011;38759;53.396;6.722;2023-08-06T07:37:58;8.15;;;5.50;;
52894;SDS011;38759;53.396;6.722;2023-08-06T07:40:23;10.77;;;5.38;;
52894;SDS011;38759;53.396;6.722;2023-08-06T07:42:49;7.60;;;5.00;;
52894;SDS011;38759;53.396;6.722;2023-08-06T07:45:15;9.65;;;5.43;;
52894;SDS011;38759;53.396;6.722;2023-08-06T07:47:40;7.15;;;5.15;;
52894;SDS011;38759;53.396;6.722;2023-08-06T07:50:07;8.27;;;5.80;;
52894;SDS011;38759;53.396;6.722;2023-08-06T07:52:34;7.72;;;4.95;;
52894;SDS011;38759;53.396;6.722;2023-08-06T07:54:59;10.02;;;5.68;;
52894;SDS011;38759;53.396;6.722;2023-08-06T07:57:26;6.63;;;4.60;;
52894;SDS011;38759;53.396;6.722;2023-08-06T07:59:52;8.18;;;4.20;;
52894;SDS011;38759;53.396;6.722;2023-08-06T08:02:19;8.68;;;4.18;;
52894;SDS011;38759;53.396;6.722;2023-08-06T08:04:44;9.32;;;3.78;;
52894;SDS011;38759;53.396;6.722;2023-08-06T08:07:12;5.05;;;3.97;;
52894;SDS011;38759;53.396;6.722;2023-08-06T08:09:38;13.68;;;4.10;;
52894;SDS011;38759;53.396;6.722;2023-08-06T08:12:04;5.97;;;4.53;;
52894;SDS011;38759;53.396;6.722;2023-08-06T08:14:30;8.18;;;4.43;;
52894;SDS011;38759;53.396;6.722;2023-08-06T08:17:04;4.38;;;3.40;;
52894;SDS011;38759;53.396;6.722;2023-08-06T08:19:33;4.07;;;3.55;;
52894;SDS011;38759;53.396;6.722;2023-08-06T08:21:59;8.23;;;3.60;;
52894;SDS011;38759;53.396;6.722;2023-08-06T08:24:25;3.88;;;3.45;;
52894;SDS011;38759;53.396;6.722;2023-08-06T08:26:51;3.85;;;3.15;;
52894;SDS011;38759;53.396;6.722;2023-08-06T08:29:17;5.57;;;3.38;;
52894;SDS011;38759;53.396;6.722;2023-08-06T08:31:44;6.72;;;3.10;;
52894;SDS011;38759;53.396;6.722;2023-08-06T08:34:10;3.75;;;3.00;;
52894;SDS011;38759;53.396;6.722;2023-08-06T08:36:35;4.32;;;2.85;;
52894;SDS011;38759;53.396;6.722;2023-08-06T08:39:01;4.20;;;2.80;;
52894;SDS011;38759;53.396;6.722;2023-08-06T08:41:30;4.90;;;2.88;;
52894;SDS011;38759;53.396;6.722;2023-08-06T08:43:58;5.65;;;3.00;;
52894;SDS011;38759;53.396;6.722;2023-08-06T08:46:27;2.95;;;2.53;;
52894;SDS011;38759;53.396;6.722;2023-08-06T08:48:56;4.63;;;3.17;;
52894;SDS011;38759;53.396;6.722;2023-08-06T08:51:25;3.90;;;2.70;;
52894;SDS011;38759;53.396;6.722;2023-08-06T08:53:53;5.97;;;3.10;;
52894;SDS011;38759;53.396;6.722;2023-08-06T08:56:22;7.53;;;3.35;;
52894;SDS011;38759;53.396;6.722;2023-08-06T08:58:48;3.28;;;2.50;;
52894;SDS011;38759;53.396;6.722;2023-08-06T09:01:15;4.63;;;2.03;;
52894;SDS011;38759;53.396;6.722;2023-08-06T09:03:41;2.00;;;1.80;;
52894;SDS011;38759;53.396;6.722;2023-08-06T09:06:09;4.40;;;1.88;;
52894;SDS011;38759;53.396;6.722;2023-08-06T09:08:37;3.20;;;2.17;;
52894;SDS011;38759;53.396;6.722;2023-08-06T09:11:08;1.63;;;1.52;;
52894;SDS011;38759;53.396;6.722;2023-08-06T09:13:37;3.53;;;2.10;;
52894;SDS011;38759;53.396;6.722;2023-08-06T09:16:03;2.67;;;1.92;;
52894;SDS011;38759;53.396;6.722;2023-08-06T09:18:30;3.38;;;1.70;;
52894;SDS011;38759;53.396;6.722;2023-08-06T09:20:56;3.65;;;1.85;;
52894;SDS011;38759;53.396;6.722;2023-08-06T09:23:29;5.95;;;1.60;;
52894;SDS011;38759;53.396;6.722;2023-08-06T09:25:56;1.50;;;1.40;;
52894;SDS011;38759;53.396;6.722;2023-08-06T09:28:23;3.08;;;1.70;;
52894;SDS011;38759;53.396;6.722;2023-08-06T09:30:52;1.77;;;1.52;;
52894;SDS011;38759;53.396;6.722;2023-08-06T09:33:20;1.75;;;1.65;;
52894;SDS011;38759;53.396;6.722;2023-08-06T09:35:48;2.28;;;1.98;;
52894;SDS011;38759;53.396;6.722;2023-08-06T09:38:13;3.55;;;1.60;;
52894;SDS011;38759;53.396;6.722;2023-08-06T09:40:39;7.32;;;1.70;;
52894;SDS011;38759;53.396;6.722;2023-08-06T09:43:05;3.35;;;1.50;;
52894;SDS011;38759;53.396;6.722;2023-08-06T09:47:59;2.05;;;1.63;;
52894;SDS011;38759;53.396;6.722;2023-08-06T09:50:31;2.95;;;1.77;;
52894;SDS011;38759;53.396;6.722;2023-08-06T09:52:58;1.60;;;1.50;;
52894;SDS011;38759;53.396;6.722;2023-08-06T09:55:25;1.98;;;1.50;;
52894;SDS011;38759;53.396;6.722;2023-08-06T09:57:51;4.47;;;1.52;;
52894;SDS011;38759;53.396;6.722;2023-08-06T10:00:18;3.10;;;1.73;;
52894;SDS011;38759;53.396;6.722;2023-08-06T10:02:45;2.30;;;1.70;;
52894;SDS011;38759;53.396;6.722;2023-08-06T10:05:11;3.72;;;1.50;;
52894;SDS011;38759;53.396;6.722;2023-08-06T10:07:39;3.25;;;1.80;;
52894;SDS011;38759;53.396;6.722;2023-08-06T10:10:05;2.10;;;1.75;;
52894;SDS011;38759;53.396;6.722;2023-08-06T10:12:33;5.30;;;1.77;;
52894;SDS011;38759;53.396;6.722;2023-08-06T10:15:01;1.90;;;1.77;;
52894;SDS011;38759;53.396;6.722;2023-08-06T10:17:31;1.73;;;1.63;;
52894;SDS011;38759;53.396;6.722;2023-08-06T10:19:59;4.97;;;1.85;;
52894;SDS011;38759;53.396;6.722;2023-08-06T10:22:25;2.85;;;1.50;;
52894;SDS011;38759;53.396;6.722;2023-08-06T10:24:56;3.33;;;1.80;;
52894;SDS011;38759;53.396;6.722;2023-08-06T10:27:34;2.85;;;1.58;;
52894;SDS011;38759;53.396;6.722;2023-08-06T10:33:09;3.00;;;1.70;;
52894;SDS011;38759;53.396;6.722;2023-08-06T10:35:41;4.43;;;1.88;;
52894;SDS011;38759;53.396;6.722;2023-08-06T10:38:12;3.55;;;1.80;;
52894;SDS011;38759;53.396;6.722;2023-08-06T10:40:40;4.60;;;1.50;;
52894;SDS011;38759;53.396;6.722;2023-08-06T10:43:07;3.83;;;1.42;;
52894;SDS011;38759;53.396;6.722;2023-08-06T10:45:34;4.05;;;1.80;;
52894;SDS011;38759;53.396;6.722;2023-08-06T10:48:01;2.10;;;1.58;;
52894;SDS011;38759;53.396;6.722;2023-08-06T10:50:27;1.48;;;1.38;;
52894;SDS011;38759;53.396;6.722;2023-08-06T10:52:53;2.05;;;1.45;;
52894;SDS011;38759;53.396;6.722;2023-08-06T10:55:26;1.45;;;1.35;;
52894;SDS011;38759;53.396;6.722;2023-08-06T10:57:53;3.40;;;2.15;;
52894;SDS011;38759;53.396;6.722;2023-08-06T11:00:20;4.20;;;1.58;;
52894;SDS011;38759;53.396;6.722;2023-08-06T11:02:50;2.60;;;1.70;;
52894;SDS011;38759;53.396;6.722;2023-08-06T11:05:17;4.25;;;1.67;;
52894;SDS011;38759;53.396;6.722;2023-08-06T11:07:43;1.92;;;1.48;;
52894;SDS011;38759;53.396;6.722;2023-08-06T11:10:10;5.07;;;1.63;;
52894;SDS011;38759;53.396;6.722;2023-08-06T11:12:37;2.08;;;1.50;;
52894;SDS011;38759;53.396;6.722;2023-08-06T11:15:04;1.40;;;1.30;;
52894;SDS011;38759;53.396;6.722;2023-08-06T11:17:31;1.65;;;1.50;;
52894;SDS011;38759;53.396;6.722;2023-08-06T11:20:05;3.45;;;1.45;;
52894;SDS011;38759;53.396;6.722;2023-08-06T11:22:31;2.05;;;1.40;;
52894;SDS011;38759;53.396;6.722;2023-08-06T11:24:57;3.83;;;1.63;;
52894;SDS011;38759;53.396;6.722;2023-08-06T11:27:26;2.80;;;1.50;;
52894;SDS011;38759;53.396;6.722;2023-08-06T11:29:53;4.18;;;1.50;;
52894;SDS011;38759;53.396;6.722;2023-08-06T11:32:19;2.03;;;1.50;;
52894;SDS011;38759;53.396;6.722;2023-08-06T11:34:44;1.92;;;1.58;;
52894;SDS011;38759;53.396;6.722;2023-08-06T11:37:10;2.80;;;1.65;;
52894;SDS011;38759;53.396;6.722;2023-08-06T11:39:37;4.22;;;1.42;;
52894;SDS011;38759;53.396;6.722;2023-08-06T11:42:04;1.63;;;1.27;;
52894;SDS011;38759;53.396;6.722;2023-08-06T11:44:35;5.85;;;1.48;;
52894;SDS011;38759;53.396;6.722;2023-08-06T11:47:04;4.05;;;1.35;;
52894;SDS011;38759;53.396;6.722;2023-08-06T11:52:17;1.63;;;1.08;;
52894;SDS011;38759;53.396;6.722;2023-08-06T11:54:45;2.58;;;1.27;;
52894;SDS011;38759;53.396;6.722;2023-08-06T11:57:12;3.17;;;1.40;;
52894;SDS011;38759;53.396;6.722;2023-08-06T11:59:38;2.20;;;1.30;;
52894;SDS011;38759;53.396;6.722;2023-08-06T12:02:04;2.63;;;1.23;;
52894;SDS011;38759;53.396;6.722;2023-08-06T12:07:30;3.13;;;1.17;;
52894;SDS011;38759;53.396;6.722;2023-08-06T12:10:01;1.02;;;1.00;;
52894;SDS011;38759;53.396;6.722;2023-08-06T12:12:27;1.45;;;1.20;;
52894;SDS011;38759;53.396;6.722;2023-08-06T12:14:53;1.10;;;1.00;;
52894;SDS011;38759;53.396;6.722;2023-08-06T12:17:20;0.90;;;0.90;;
52894;SDS011;38759;53.396;6.722;2023-08-06T12:19:46;1.30;;;1.20;;
52894;SDS011;38759;53.396;6.722;2023-08-06T12:22:12;1.88;;;1.10;;
52894;SDS011;38759;53.396;6.722;2023-08-06T12:24:39;2.83;;;1.20;;
52894;SDS011;38759;53.396;6.722;2023-08-06T12:27:06;1.63;;;1.10;;
52894;SDS011;38759;53.396;6.722;2023-08-06T12:29:31;1.77;;;1.27;;
52894;SDS011;38759;53.396;6.722;2023-08-06T12:31:57;1.60;;;1.10;;
52894;SDS011;38759;53.396;6.722;2023-08-06T12:34:23;1.73;;;1.00;;
52894;SDS011;38759;53.396;6.722;2023-08-06T12:36:48;3.95;;;1.50;;
52894;SDS011;38759;53.396;6.722;2023-08-06T12:39:14;1.33;;;1.23;;
52894;SDS011;38759;53.396;6.722;2023-08-06T12:41:39;1.20;;;1.10;;
52894;SDS011;38759;53.396;6.722;2023-08-06T12:44:05;2.47;;;1.33;;
52894;SDS011;38759;53.396;6.722;2023-08-06T12:46:31;1.83;;;1.20;;
52894;SDS011;38759;53.396;6.722;2023-08-06T12:48:56;3.10;;;1.15;;
52894;SDS011;38759;53.396;6.722;2023-08-06T12:51:23;1.20;;;1.10;;
52894;SDS011;38759;53.396;6.722;2023-08-06T12:53:49;1.92;;;1.30;;
52894;SDS011;38759;53.396;6.722;2023-08-06T12:56:15;1.25;;;1.15;;
52894;SDS011;38759;53.396;6.722;2023-08-06T12:58:41;2.15;;;1.20;;
52894;SDS011;38759;53.396;6.722;2023-08-06T13:01:07;2.53;;;1.20;;
52894;SDS011;38759;53.396;6.722;2023-08-06T13:03:33;1.73;;;1.58;;
52894;SDS011;38759;53.396;6.722;2023-08-06T13:05:59;3.60;;;1.40;;
52894;SDS011;38759;53.396;6.722;2023-08-06T13:08:24;2.45;;;1.40;;
52894;SDS011;38759;53.396;6.722;2023-08-06T13:10:50;1.70;;;1.13;;
52894;SDS011;38759;53.396;6.722;2023-08-06T13:13:16;2.58;;;1.10;;
52894;SDS011;38759;53.396;6.722;2023-08-06T13:15:41;1.95;;;1.27;;
52894;SDS011;38759;53.396;6.722;2023-08-06T13:18:07;1.20;;;1.10;;
52894;SDS011;38759;53.396;6.722;2023-08-06T13:20:32;4.60;;;1.48;;
52894;SDS011;38759;53.396;6.722;2023-08-06T13:22:58;1.80;;;1.33;;
52894;SDS011;38759;53.396;6.722;2023-08-06T13:25:26;1.80;;;1.27;;
52894;SDS011;38759;53.396;6.722;2023-08-06T13:27:53;2.95;;;1.40;;
52894;SDS011;38759;53.396;6.722;2023-08-06T13:30:19;2.83;;;1.30;;
52894;SDS011;38759;53.396;6.722;2023-08-06T13:32:45;2.15;;;1.33;;
52894;SDS011;38759;53.396;6.722;2023-08-06T13:35:11;2.17;;;1.27;;
52894;SDS011;38759;53.396;6.722;2023-08-06T13:37:37;4.95;;;1.35;;
52894;SDS011;38759;53.396;6.722;2023-08-06T13:40:03;1.33;;;1.17;;
52894;SDS011;38759;53.396;6.722;2023-08-06T13:42:29;2.28;;;1.30;;
52894;SDS011;38759;53.396;6.722;2023-08-06T13:44:54;1.60;;;1.05;;
52894;SDS011;38759;53.396;6.722;2023-08-06T13:47:27;1.30;;;1.20;;
52894;SDS011;38759;53.396;6.722;2023-08-06T13:49:53;3.30;;;1.38;;
52894;SDS011;38759;53.396;6.722;2023-08-06T13:52:18;6.40;;;1.40;;
52894;SDS011;38759;53.396;6.722;2023-08-06T13:54:44;1.38;;;1.15;;
52894;SDS011;38759;53.396;6.722;2023-08-06T13:57:10;1.98;;;1.33;;
52894;SDS011;38759;53.396;6.722;2023-08-06T13:59:36;2.03;;;1.30;;
52894;SDS011;38759;53.396;6.722;2023-08-06T14:02:01;2.03;;;1.25;;
52894;SDS011;38759;53.396;6.722;2023-08-06T14:04:27;1.38;;;1.27;;
52894;SDS011;38759;53.396;6.722;2023-08-06T14:06:53;1.50;;;1.20;;
52894;SDS011;38759;53.396;6.722;2023-08-06T14:09:18;2.00;;;1.25;;
52894;SDS011;38759;53.396;6.722;2023-08-06T14:11:44;3.50;;;1.33;;
52894;SDS011;38759;53.396;6.722;2023-08-06T14:14:10;1.30;;;1.20;;
52894;SDS011;38759;53.396;6.722;2023-08-06T14:16:36;1.52;;;1.30;;
52894;SDS011;38759;53.396;6.722;2023-08-06T14:19:02;2.42;;;1.20;;
52894;SDS011;38759;53.396;6.722;2023-08-06T14:21:28;1.50;;;1.13;;
52894;SDS011;38759;53.396;6.722;2023-08-06T14:23:54;2.10;;;1.30;;
52894;SDS011;38759;53.396;6.722;2023-08-06T14:26:19;3.35;;;1.20;;
52894;SDS011;38759;53.396;6.722;2023-08-06T14:28:45;2.45;;;1.10;;
52894;SDS011;38759;53.396;6.722;2023-08-06T14:31:11;3.22;;;1.50;;
52894;SDS011;38759;53.396;6.722;2023-08-06T14:33:37;2.33;;;1.45;;
52894;SDS011;38759;53.396;6.722;2023-08-06T14:36:03;1.90;;;1.38;;
52894;SDS011;38759;53.396;6.722;2023-08-06T14:38:29;2.90;;;1.65;;
52894;SDS011;38759;53.396;6.722;2023-08-06T14:40:54;2.15;;;1.52;;
52894;SDS011;38759;53.396;6.722;2023-08-06T14:43:20;2.05;;;1.55;;
52894;SDS011;38759;53.396;6.722;2023-08-06T14:45:45;3.10;;;1.58;;
52894;SDS011;38759;53.396;6.722;2023-08-06T14:48:11;2.40;;;1.40;;
52894;SDS011;38759;53.396;6.722;2023-08-06T14:50:37;3.35;;;1.50;;
52894;SDS011;38759;53.396;6.722;2023-08-06T14:53:04;2.88;;;1.38;;
52894;SDS011;38759;53.396;6.722;2023-08-06T14:55:30;1.40;;;1.30;;
52894;SDS011;38759;53.396;6.722;2023-08-06T14:57:57;1.92;;;1.40;;